Terminal Aerodrome Forecast
Issued by NWS

Home | Current Version | Previous Version | Text Only | Print | Product List | Glossary On
Versions: 1 2 3 4 5 6 7 8 9 10 11 12 13 14 15 16 17
100
FTAK31 PAJN 231741 AAA
TAFAWG
TAF AMD
PAWG 231741Z 2318/2418 00000KT P6SM BCFG SCT003 BKN060
      TEMPO 2318/2320 3SM BR BKN003 OVC015
     FM232000 21005KT P6SM FEW010 BKN050
     FM240900 00000KT 6SM BCFG SCT001 BKN040
      AMD NOT SKED 2406/2415=

USA.gov is the U.S. government's official web portal to all federal, state and local government web resources and services.